Time;durP1;ratioP1;P1;durP2;ratioP2;P2;SDS_P1;SDS_P2;PMS_P1;PMS_P2;Temp;Humidity;BMP_temperature;BMP_pressure;BME280_temperature;BME280_humidity;BME280_pressure;Samples;Min_cycle;Max_cycle;Signal;HPM_P1;HPM_P2
2023/09/07 00:01:39;;;;;;;5.60;4.10;;;;;;;10.63;100.00;98091.21;110569;1244;69866;-65
2023/09/07 00:04:10;;;;;;;6.10;4.30;;;;;;;10.63;100.00;98093.64;110374;1241;69143;-65
2023/09/07 00:06:43;;;;;;;6.10;4.40;;;;;;;10.61;100.00;98093.44;110343;1241;59713;-65
2023/09/07 00:09:15;;;;;;;6.10;4.40;;;;;;;10.54;100.00;98089.17;110550;1241;59726;-66
2023/09/07 00:11:46;;;;;;;7.50;4.40;;;;;;;10.47;100.00;98087.50;110389;1242;69672;-65
2023/09/07 00:14:16;;;;;;;7.00;4.90;;;;;;;10.41;100.00;98086.63;110216;1242;69150;-66
2023/09/07 00:16:46;;;;;;;6.50;3.90;;;;;;;10.37;100.00;98086.19;110229;1245;69280;-66
2023/09/07 00:19:17;;;;;;;6.80;4.60;;;;;;;10.35;100.00;98091.39;110209;1242;59702;-65
2023/09/07 00:21:47;;;;;;;5.70;4.30;;;;;;;10.33;100.00;98088.70;110349;1241;59710;-65
2023/09/07 00:24:17;;;;;;;7.20;4.60;;;;;;;10.30;100.00;98092.05;110512;1241;71913;-66
2023/09/07 00:26:48;;;;;;;6.10;4.50;;;;;;;10.27;100.00;98096.21;110513;1243;69206;-65
2023/09/07 00:29:18;;;;;;;6.30;4.90;;;;;;;10.25;100.00;98095.10;110375;1241;69097;-65
2023/09/07 00:31:49;;;;;;;6.00;4.80;;;;;;;10.22;100.00;98095.81;110110;1243;59714;-65
2023/09/07 00:34:18;;;;;;;;;;;;;;;10.16;100.00;98092.81;110279;1241;59698;-65
2023/09/07 00:36:48;;;;;;;7.00;4.40;;;;;;;10.14;100.00;98093.48;110154;1244;71425;-65
2023/09/07 00:39:17;;;;;;;8.00;5.20;;;;;;;10.11;100.00;98095.59;110141;1242;69561;-65
2023/09/07 00:41:47;;;;;;;5.90;3.90;;;;;;;10.09;100.00;98097.81;110361;1241;69249;-65
2023/09/07 00:44:17;;;;;;;6.80;4.40;;;;;;;10.06;100.00;98102.80;110355;1241;59679;-66
2023/09/07 00:46:47;;;;;;;5.80;3.60;;;;;;;10.04;100.00;98100.88;110185;1241;59732;-66
2023/09/07 00:49:19;;;;;;;4.80;3.50;;;;;;;10.02;100.00;98103.23;110195;1245;71596;-66
2023/09/07 00:51:50;;;;;;;6.10;4.10;;;;;;;10.02;100.00;98105.70;110132;1244;69875;-66
2023/09/07 00:54:20;;;;;;;5.80;4.00;;;;;;;10.00;100.00;98103.90;110167;1244;69223;-66
2023/09/07 00:56:51;;;;;;;5.40;3.90;;;;;;;10.00;100.00;98104.42;110156;1243;59738;-67
2023/09/07 00:59:21;;;;;;;7.70;4.60;;;;;;;10.01;100.00;98107.88;110122;1244;59675;-66
2023/09/07 01:01:52;;;;;;;5.40;4.00;;;;;;;10.04;100.00;98103.30;110180;1241;71615;-66
2023/09/07 01:04:22;;;;;;;;;;;;;;;10.04;100.00;98104.36;110251;1242;69157;-66
2023/09/07 01:07:00;;;;;;;6.50;4.50;;;;;;;10.02;100.00;98100.80;110110;1244;69875;-66
2023/09/07 01:09:35;;;;;;;7.90;4.80;;;;;;;10.00;100.00;98102.67;110257;1241;59693;-66
2023/09/07 01:12:10;;;;;;;6.10;3.70;;;;;;;9.98;100.00;98103.82;110306;1242;59660;-66
2023/09/07 01:14:41;;;;;;;5.60;4.20;;;;;;;9.95;100.00;98100.34;110257;1241;71000;-66
2023/09/07 01:17:11;;;;;;;5.80;4.00;;;;;;;9.93;100.00;98101.84;110280;1242;69133;-66
2023/09/07 01:19:44;;;;;;;5.40;3.70;;;;;;;9.89;100.00;98100.86;110195;1244;68531;-65
2023/09/07 01:22:14;;;;;;;5.00;3.40;;;;;;;9.86;100.00;98104.00;110269;1242;59734;-65
2023/09/07 01:24:45;;;;;;;6.00;3.70;;;;;;;9.82;100.00;98104.06;110202;1244;59748;-65
2023/09/07 01:27:16;;;;;;;6.40;4.80;;;;;;;9.81;100.00;98100.86;110224;1244;71431;-66
2023/09/07 01:29:46;;;;;;;6.80;4.40;;;;;;;9.78;100.00;98101.00;110464;1241;69185;-65
2023/09/07 01:32:17;;;;;;;4.20;3.30;;;;;;;9.76;100.00;98103.05;110492;1241;69092;-66
2023/09/07 01:34:47;;;;;;;5.50;3.90;;;;;;;9.77;100.00;98105.98;110354;1246;59684;-66
2023/09/07 01:37:18;;;;;;;6.10;4.00;;;;;;;9.78;100.00;98107.98;110496;1240;59664;-66
2023/09/07 01:39:49;;;;;;;6.30;3.60;;;;;;;9.77;100.00;98103.90;110531;1241;71363;-66
2023/09/07 01:42:21;;;;;;;5.80;3.80;;;;;;;9.77;100.00;98111.52;110437;1246;69272;-65
2023/09/07 01:44:53;;;;;;;5.10;4.00;;;;;;;9.76;100.00;98108.09;110298;1243;69300;-67
2023/09/07 01:47:23;;;;;;;5.30;3.70;;;;;;;9.75;100.00;98111.30;110209;1242;59730;-66
2023/09/07 01:49:54;;;;;;;4.60;3.50;;;;;;;9.73;100.00;98115.45;110137;1244;59687;-67
2023/09/07 01:52:26;;;;;;;5.90;3.90;;;;;;;9.72;100.00;98116.20;110329;1241;72017;-66
2023/09/07 01:54:57;;;;;;;4.70;3.50;;;;;;;9.71;100.00;98113.79;110356;1240;69616;-65
2023/09/07 01:57:27;;;;;;;;;;;;;;;9.71;100.00;98114.45;110497;1241;69673;-66
2023/09/07 01:59:58;;;;;;;5.90;3.70;;;;;;;9.69;100.00;98113.15;110497;1241;59750;-66
2023/09/07 02:02:28;;;;;;;7.20;4.80;;;;;;;9.70;100.00;98110.00;110257;1244;59692;-66
2023/09/07 02:04:59;;;;;;;6.10;4.10;;;;;;;9.69;100.00;98109.18;110226;1241;71476;-65
2023/09/07 02:07:29;;;;;;;5.80;3.70;;;;;;;9.67;100.00;98107.95;110468;1241;68498;-67
2023/09/07 02:09:59;;;;;;;4.80;3.50;;;;;;;9.65;100.00;98111.02;110388;1241;69491;-66
2023/09/07 02:12:30;;;;;;;5.50;3.70;;;;;;;9.62;100.00;98111.89;110338;1241;59699;-65
2023/09/07 02:15:01;;;;;;;;;;;;;;;9.59;100.00;98107.84;110596;1240;59666;-65
2023/09/07 02:17:33;;;;;;;5.50;3.90;;;;;;;9.60;100.00;98112.15;110351;1242;71295;-66
2023/09/07 02:20:10;;;;;;;5.60;4.00;;;;;;;9.63;100.00;98111.82;110190;1241;69195;-66
2023/09/07 02:22:41;;;;;;;7.20;4.90;;;;;;;9.66;100.00;98111.64;110417;1243;68233;-65
2023/09/07 02:25:11;;;;;;;8.00;5.50;;;;;;;9.66;100.00;98107.43;110164;1244;59721;-66
2023/09/07 02:27:42;;;;;;;;;;;;;;;9.64;100.00;98110.14;110262;1243;59706;-66
2023/09/07 02:30:13;;;;;;;6.90;4.20;;;;;;;9.62;100.00;98113.27;110211;1241;71606;-66
2023/09/07 02:32:44;;;;;;;5.80;4.50;;;;;;;9.57;100.00;98117.91;110410;1241;69216;-65
2023/09/07 02:35:14;;;;;;;5.70;3.90;;;;;;;9.53;100.00;98118.12;110166;1244;69734;-65
2023/09/07 02:37:43;;;;;;;;;;;;;;;9.49;100.00;98119.60;110354;1242;59715;-66
2023/09/07 02:40:15;;;;;;;4.50;3.20;;;;;;;9.46;100.00;98119.40;110211;1243;59725;-66
2023/09/07 02:42:46;;;;;;;5.30;3.40;;;;;;;9.42;100.00;98117.89;110361;1242;70851;-66
2023/09/07 02:45:16;;;;;;;4.50;3.10;;;;;;;9.39;100.00;98118.26;110351;1242;69273;-66
2023/09/07 02:47:50;;;;;;;4.50;2.90;;;;;;;9.36;100.00;98121.88;110161;1244;69275;-65
2023/09/07 02:50:22;;;;;;;5.20;3.50;;;;;;;9.35;100.00;98119.00;110146;1241;59727;-66
2023/09/07 02:52:54;;;;;;;4.70;3.30;;;;;;;9.33;100.00;98122.05;110182;1243;59750;-64
2023/09/07 02:55:24;;;;;;;4.90;3.30;;;;;;;9.31;100.00;98123.57;110190;1245;70653;-65
2023/09/07 02:57:57;;;;;;;5.80;3.40;;;;;;;9.30;100.00;98127.62;110116;1244;69226;-65
2023/09/07 03:00:27;;;;;;;6.30;4.00;;;;;;;9.29;100.00;98125.39;110131;1241;68218;-65
2023/09/07 03:02:58;;;;;;;5.40;3.50;;;;;;;9.30;100.00;98125.19;110180;1244;59709;-67
2023/09/07 03:05:29;;;;;;;4.90;3.40;;;;;;;9.30;100.00;98127.60;110133;1244;59634;-66
2023/09/07 03:07:59;;;;;;;5.90;3.40;;;;;;;9.30;100.00;98127.09;110239;1243;71382;-65
2023/09/07 03:10:31;;;;;;;4.80;3.00;;;;;;;9.30;100.00;98125.70;110199;1244;69198;-66
2023/09/07 03:13:03;;;;;;;4.50;3.30;;;;;;;9.29;100.00;98122.10;110192;1244;69549;-67
2023/09/07 03:15:36;;;;;;;6.90;3.80;;;;;;;9.27;100.00;98125.52;110211;1242;59752;-65
2023/09/07 03:18:08;;;;;;;4.90;3.70;;;;;;;9.17;100.00;98123.83;110180;1244;59695;-65
2023/09/07 03:20:41;;;;;;;4.40;2.90;;;;;;;9.10;100.00;98125.27;110180;1241;71433;-65
2023/09/07 03:23:11;;;;;;;4.40;3.50;;;;;;;9.06;100.00;98129.48;109953;1245;68607;-65
2023/09/07 03:25:42;;;;;;;6.40;4.10;;;;;;;9.03;100.00;98133.81;110236;1241;69558;-65
2023/09/07 03:28:12;;;;;;;;;;;;;;;8.99;100.00;98136.81;110097;1244;59662;-65
2023/09/07 03:30:42;;;;;;;5.20;3.00;;;;;;;8.96;100.00;98139.56;110271;1241;59657;-65
2023/09/07 03:33:13;;;;;;;3.40;2.50;;;;;;;8.94;100.00;98139.67;110128;1244;70650;-65
2023/09/07 03:35:43;;;;;;;5.20;3.60;;;;;;;8.93;100.00;98141.67;110188;1241;68449;-65
2023/09/07 03:38:15;;;;;;;4.80;3.40;;;;;;;8.94;100.00;98142.48;110121;1241;68509;-65
2023/09/07 03:40:45;;;;;;;3.90;3.00;;;;;;;8.92;100.00;98142.58;110136;1241;59733;-65
2023/09/07 03:43:16;;;;;;;4.60;3.30;;;;;;;8.92;100.00;98147.82;110150;1244;59664;-65
2023/09/07 03:45:46;;;;;;;4.20;2.80;;;;;;;8.92;100.00;98147.63;110160;1241;71351;-65
2023/09/07 03:48:17;;;;;;;4.30;3.30;;;;;;;8.91;100.00;98146.45;110119;1246;69269;-65
2023/09/07 03:50:47;;;;;;;5.80;3.40;;;;;;;8.91;100.00;98144.16;110164;1243;70111;-64
2023/09/07 03:53:18;;;;;;;4.30;2.90;;;;;;;8.92;100.00;98144.84;110095;1244;59654;-65
2023/09/07 03:55:49;;;;;;;4.60;3.30;;;;;;;8.92;100.00;98146.73;110114;1244;59687;-65
2023/09/07 03:58:18;;;;;;;;;;;;;;;8.96;100.00;98148.30;110136;1244;70670;-65
2023/09/07 04:00:48;;;;;;;5.80;4.00;;;;;;;9.02;100.00;98150.58;110304;1242;69841;-65
2023/09/07 04:03:17;;;;;;;7.10;3.90;;;;;;;9.09;100.00;98155.23;110076;1240;68331;-65
2023/09/07 04:05:48;;;;;;;5.60;4.10;;;;;;;9.16;100.00;98156.55;110161;1244;59761;-65
2023/09/07 04:08:17;;;;;;;6.90;4.40;;;;;;;9.23;100.00;98157.74;110244;1241;60126;-65
2023/09/07 04:10:47;;;;;;;6.20;4.60;;;;;;;9.28;100.00;98160.06;110082;1241;70662;-65
2023/09/07 04:13:16;;;;;;;;;;;;;;;9.33;100.00;98159.80;110298;1241;69038;-65
2023/09/07 04:15:46;;;;;;;8.50;5.30;;;;;;;9.37;100.00;98160.45;110227;1242;69248;-65
2023/09/07 04:18:16;;;;;;;5.50;3.80;;;;;;;9.45;100.00;98164.17;110175;1244;59704;-66
2023/09/07 04:20:47;;;;;;;6.60;4.30;;;;;;;9.58;100.00;98168.33;110154;1244;59649;-65
2023/09/07 04:23:17;;;;;;;5.90;3.80;;;;;;;9.71;100.00;98167.41;110116;1244;70666;-66
2023/09/07 04:25:47;;;;;;;4.50;3.90;;;;;;;9.86;100.00;98167.04;110168;1244;68457;-64
2023/09/07 04:28:16;;;;;;;;;;;;;;;10.08;100.00;98165.73;110118;1241;69714;-66
2023/09/07 04:30:47;;;;;;;6.80;4.60;;;;;;;10.32;100.00;98169.60;110101;1241;60063;-66
2023/09/07 04:33:17;;;;;;;4.70;4.00;;;;;;;10.56;100.00;98172.02;110189;1241;59691;-65
2023/09/07 04:35:47;;;;;;;6.10;4.30;;;;;;;10.68;100.00;98174.71;110105;1244;72131;-65
2023/09/07 04:38:18;;;;;;;5.00;3.50;;;;;;;10.81;100.00;98171.51;110191;1240;68585;-65
2023/09/07 04:40:47;;;;;;;6.20;4.60;;;;;;;10.96;100.00;98167.59;110239;1242;70209;-65
2023/09/07 04:43:17;;;;;;;8.60;4.60;;;;;;;10.96;100.00;98169.36;110254;1241;59735;-65
2023/09/07 04:45:47;;;;;;;6.10;4.50;;;;;;;11.12;100.00;98167.96;110260;1242;59682;-65
2023/09/07 04:48:17;;;;;;;5.90;4.70;;;;;;;11.32;100.00;98167.10;110148;1244;71973;-67
2023/09/07 04:50:46;;;;;;;;;;;;;;;11.49;100.00;98170.50;109828;1241;484071;-65
2023/09/07 04:53:16;;;;;;;5.30;4.10;;;;;;;11.57;100.00;98173.67;110221;1244;68965;-66
2023/09/07 04:55:45;;;;;;;5.40;4.00;;;;;;;11.81;100.00;98172.83;110112;1244;59739;-66
2023/09/07 04:58:15;;;;;;;4.90;4.20;;;;;;;11.82;100.00;98176.40;110132;1241;59680;-65
2023/09/07 05:00:45;;;;;;;5.40;4.20;;;;;;;11.86;100.00;98177.40;110165;1241;71947;-65
2023/09/07 05:03:15;;;;;;;5.40;3.80;;;;;;;12.15;100.00;98179.30;110112;1241;68603;-65
2023/09/07 05:05:51;;;;;;;5.40;4.10;;;;;;;12.35;100.00;98179.56;110265;1241;69267;-64
2023/09/07 05:08:22;;;;;;;5.70;4.10;;;;;;;12.54;100.00;98181.21;110080;1244;59786;-65
2023/09/07 05:11:10;;;;;;;5.10;4.00;;;;;;;12.82;100.00;98181.55;110108;1242;59737;-65
2023/09/07 05:13:40;;;;;;;6.00;3.80;;;;;;;13.16;100.00;98183.50;110202;1240;70445;-64
2023/09/07 05:16:10;;;;;;;6.70;4.20;;;;;;;13.37;100.00;98184.52;110334;1241;68500;-62
2023/09/07 05:18:42;;;;;;;4.60;3.60;;;;;;;13.72;100.00;98182.64;110066;1244;69887;-65
2023/09/07 05:21:15;;;;;;;7.30;4.50;;;;;;;13.88;99.01;98185.70;110125;1243;59647;-66
2023/09/07 05:23:44;;;;;;;6.60;4.60;;;;;;;14.16;97.23;98191.48;110301;1241;59672;-66
2023/09/07 05:26:14;;;;;;;5.50;3.80;;;;;;;14.48;95.94;98193.99;110215;1242;71977;-66
2023/09/07 05:28:43;;;;;;;5.10;3.80;;;;;;;14.69;93.51;98194.16;110245;1240;69284;-66
2023/09/07 05:31:12;;;;;;;5.40;4.40;;;;;;;14.90;92.45;98199.23;110153;1241;68556;-64
2023/09/07 05:33:42;;;;;;;5.40;4.00;;;;;;;15.10;91.76;98193.61;110142;1241;59652;-67
2023/09/07 05:36:12;;;;;;;5.00;4.00;;;;;;;15.54;97.19;98195.20;110261;1241;59608;-65
2023/09/07 05:38:42;;;;;;;6.70;3.90;;;;;;;15.91;96.01;98193.60;110233;1242;71414;-65
2023/09/07 05:41:12;;;;;;;5.50;3.80;;;;;;;16.15;89.65;98195.65;110198;1244;68866;-64
2023/09/07 05:43:40;;;;;;;6.50;3.40;;;;;;;16.46;94.24;98197.80;110109;1241;69474;-67
2023/09/07 05:46:09;;;;;;;6.70;3.50;;;;;;;16.65;85.65;98197.27;110155;1242;59683;-66
2023/09/07 05:48:40;;;;;;;5.00;3.40;;;;;;;16.90;82.88;98200.22;110301;1242;59673;-66
2023/09/07 05:51:09;;;;;;;6.00;3.30;;;;;;;17.29;86.39;98204.74;110230;1241;71356;-65
2023/09/07 05:53:39;;;;;;;4.80;3.50;;;;;;;17.73;87.77;98205.86;110352;1240;69155;-65
2023/09/07 05:56:09;;;;;;;4.70;3.20;;;;;;;18.13;86.88;98206.48;110205;1241;68693;-65
2023/09/07 05:58:38;;;;;;;6.10;3.60;;;;;;;18.52;84.99;98211.50;110160;1241;59687;-64
2023/09/07 06:01:09;;;;;;;6.30;4.40;;;;;;;18.72;78.13;98211.24;110208;1243;59718;-65
2023/09/07 06:03:39;;;;;;;4.20;3.50;;;;;;;18.64;73.74;98212.56;110442;1241;71959;-64
2023/09/07 06:06:08;;;;;;;5.70;4.00;;;;;;;18.77;74.83;98215.19;110418;1241;69282;-65
2023/09/07 06:08:38;;;;;;;5.30;3.70;;;;;;;19.00;76.25;98217.44;110214;1243;69883;-66
2023/09/07 06:11:08;;;;;;;6.30;3.90;;;;;;;19.36;75.65;98218.82;110310;1242;59849;-66
2023/09/07 06:13:39;;;;;;;6.10;4.00;;;;;;;19.71;75.85;98215.59;110515;1242;59672;-64
2023/09/07 06:16:08;;;;;;;;;;;;;;;19.84;70.12;98214.38;110470;1239;71513;-65
2023/09/07 06:18:37;;;;;;;5.20;4.30;;;;;;;19.71;68.09;98213.45;110236;1241;69805;-64
2023/09/07 06:21:06;;;;;;;6.30;4.30;;;;;;;19.82;68.56;98213.80;110219;1242;69843;-64
2023/09/07 06:23:36;;;;;;;6.10;4.50;;;;;;;19.82;68.48;98214.16;110234;1242;59703;-65
2023/09/07 06:26:05;;;;;;;6.50;4.30;;;;;;;20.18;70.52;98214.56;110389;1239;59750;-64
2023/09/07 06:28:34;;;;;;;7.50;4.70;;;;;;;20.26;66.59;98212.12;110326;1241;71984;-67
2023/09/07 06:31:03;;;;;;;5.40;3.90;;;;;;;20.32;65.18;98211.54;110292;1241;68411;-64
2023/09/07 06:33:32;;;;;;;5.90;4.30;;;;;;;20.59;64.99;98209.45;110396;1241;70028;-66
2023/09/07 06:36:02;;;;;;;5.50;4.20;;;;;;;20.85;65.50;98211.81;110593;1243;59700;-63
2023/09/07 06:38:32;;;;;;;6.50;4.20;;;;;;;20.98;63.71;98211.75;110176;1242;59714;-66
2023/09/07 06:41:02;;;;;;;4.90;3.20;;;;;;;21.31;65.79;98213.29;110258;1242;71877;-65
2023/09/07 06:43:32;;;;;;;;;;;;;;;21.77;62.43;98218.73;110347;1242;69864;-64
2023/09/07 06:46:09;;;;;;;4.80;3.40;;;;;;;22.16;57.87;98216.94;110191;1241;68891;-64
2023/09/07 06:48:39;;;;;;;4.50;3.00;;;;;;;22.47;56.35;98220.98;110185;1244;59708;-64
2023/09/07 06:51:09;;;;;;;5.00;3.60;;;;;;;22.77;56.15;98221.81;110250;1241;59714;-64
2023/09/07 06:53:38;;;;;;;5.00;3.70;;;;;;;22.58;53.34;98217.17;110181;1240;70651;-64
2023/09/07 06:56:26;;;;;;;4.50;3.70;;;;;;;22.56;53.56;98219.34;110284;1241;69090;-64
2023/09/07 06:58:55;;;;;;;7.30;4.30;;;;;;;22.63;54.78;98217.30;110087;1241;69904;-64
2023/09/07 07:01:25;;;;;;;7.20;4.30;;;;;;;22.75;54.46;98218.84;110103;1244;59661;-64
2023/09/07 07:03:56;;;;;;;6.00;4.50;;;;;;;22.38;53.20;98221.66;110120;1244;59715;-64
2023/09/07 07:06:26;;;;;;;6.70;4.20;;;;;;;22.16;54.26;98218.69;110166;1241;71984;-64
2023/09/07 07:08:56;;;;;;;6.40;4.10;;;;;;;22.40;54.03;98223.87;110215;1242;69795;-63
2023/09/07 07:11:25;;;;;;;6.10;4.30;;;;;;;22.48;53.12;98225.70;110105;1244;69960;-64
2023/09/07 07:13:54;;;;;;;5.50;3.50;;;;;;;22.47;53.08;98221.34;110089;1241;59770;-63
2023/09/07 07:16:24;;;;;;;5.00;3.70;;;;;;;22.65;53.45;98223.46;110384;1241;59689;-62
2023/09/07 07:18:53;;;;;;;4.80;4.00;;;;;;;23.02;52.32;98223.09;110394;1243;71419;-66
2023/09/07 07:21:22;;;;;;;5.20;4.00;;;;;;;23.17;50.92;98224.14;110452;1240;69192;-66
2023/09/07 07:23:52;;;;;;;4.90;4.20;;;;;;;23.33;50.80;98219.66;110264;1241;69868;-65
2023/09/07 07:26:21;;;;;;;5.00;3.80;;;;;;;23.44;51.02;98219.00;110007;1244;59765;-65
2023/09/07 07:28:51;;;;;;;4.90;4.10;;;;;;;23.39;50.12;98217.02;110211;1242;59700;-64
2023/09/07 07:31:20;;;;;;;;;;;;;;;23.41;50.49;98222.19;110298;1249;71517;-65
2023/09/07 07:33:50;;;;;;;4.30;3.40;;;;;;;23.03;50.88;98220.20;110300;1242;69766;-65
2023/09/07 07:36:19;;;;;;;5.20;3.60;;;;;;;23.71;50.50;98215.13;110245;1242;69245;-65
2023/09/07 07:38:48;;;;;;;5.10;4.00;;;;;;;24.12;50.11;98211.50;110159;1241;59736;-65
2023/09/07 07:41:17;;;;;;;4.30;3.50;;;;;;;24.32;49.54;98215.06;110159;1244;59678;-65
2023/09/07 07:43:47;;;;;;;4.80;3.50;;;;;;;24.55;48.76;98211.94;110110;1244;71765;-65
2023/09/07 07:46:16;;;;;;;;;;;;;;;24.63;48.69;98213.80;110144;1244;69631;-65
2023/09/07 07:48:46;;;;;;;4.80;3.90;;;;;;;24.49;47.72;98216.48;110163;1245;69527;-66
2023/09/07 07:51:15;;;;;;;5.80;4.10;;;;;;;24.90;48.05;98211.58;110321;1238;59688;-68
2023/09/07 07:53:45;;;;;;;5.20;3.50;;;;;;;24.87;46.30;98209.34;110274;1242;59744;-64
2023/09/07 07:56:18;;;;;;;5.70;3.90;;;;;;;24.89;45.78;98208.39;110328;1240;71472;-64
2023/09/07 07:58:50;;;;;;;4.40;3.60;;;;;;;25.69;45.83;98205.61;110214;1241;69294;-64
2023/09/07 08:01:23;;;;;;;5.20;4.10;;;;;;;26.06;45.11;98202.19;110125;1244;69253;-64
2023/09/07 08:03:53;;;;;;;4.40;3.80;;;;;;;25.92;44.44;98203.83;110332;1240;59688;-65
2023/09/07 08:06:23;;;;;;;4.40;3.30;;;;;;;26.16;44.54;98200.27;110444;1238;59798;-64
2023/09/07 08:08:52;;;;;;;;;;;;;;;26.22;43.05;98200.88;110572;1243;71344;-64
2023/09/07 08:11:22;;;;;;;5.10;3.50;;;;;;;26.03;43.00;98198.64;110555;1241;68518;-64
2023/09/07 08:13:53;;;;;;;5.50;3.70;;;;;;;25.82;42.35;98197.27;110520;1241;69256;-64
2023/09/07 08:16:22;;;;;;;4.40;3.80;;;;;;;26.23;42.02;98196.48;110463;1241;59664;-65
2023/09/07 08:18:51;;;;;;;4.30;3.50;;;;;;;26.60;41.92;98197.76;110491;1238;59751;-64
2023/09/07 08:21:21;;;;;;;5.90;3.40;;;;;;;26.78;40.65;98198.76;110530;1238;71327;-64
2023/09/07 08:23:52;;;;;;;5.00;3.90;;;;;;;26.88;39.83;98196.77;110458;1240;69827;-64
2023/09/07 08:26:22;;;;;;;3.60;3.00;;;;;;;27.66;39.59;98193.47;110322;1241;69259;-64
2023/09/07 08:28:51;;;;;;;3.60;3.00;;;;;;;28.25;39.17;98191.94;110448;1240;59634;-64
2023/09/07 08:31:22;;;;;;;;;;;;;;;28.83;38.20;98188.36;110330;1242;59682;-65
2023/09/07 08:33:51;;;;;;;3.60;3.30;;;;;;;29.29;37.17;98187.19;110458;1241;71954;-65
2023/09/07 08:36:22;;;;;;;4.40;3.20;;;;;;;29.35;37.09;98185.63;110630;1240;69451;-64
2023/09/07 08:38:53;;;;;;;6.10;3.40;;;;;;;29.24;37.47;98185.23;110331;1242;69839;-65
2023/09/07 08:41:23;;;;;;;5.70;4.10;;;;;;;28.93;37.45;98185.23;110249;1241;59756;-66
2023/09/07 08:43:56;;;;;;;3.80;3.20;;;;;;;29.59;36.81;98185.44;110448;1239;59734;-63
2023/09/07 08:46:27;;;;;;;5.00;3.10;;;;;;;30.49;35.47;98181.23;110392;1241;71330;-64
2023/09/07 08:48:59;;;;;;;4.80;3.30;;;;;;;30.58;32.90;98179.07;110356;1241;69879;-64
2023/09/07 08:51:36;;;;;;;4.10;3.20;;;;;;;30.15;32.97;98171.95;110229;1242;68786;-65
2023/09/07 08:54:07;;;;;;;4.90;3.20;;;;;;;30.73;33.21;98176.90;110322;1242;59718;-64
2023/09/07 08:56:37;;;;;;;4.10;3.30;;;;;;;31.37;32.48;98178.27;110355;1240;59710;-64
2023/09/07 08:59:06;;;;;;;4.00;3.10;;;;;;;31.83;30.95;98170.95;110312;1240;71982;-64
2023/09/07 09:01:37;;;;;;;3.40;3.10;;;;;;;31.86;29.76;98171.79;110246;1242;69088;-65
2023/09/07 09:04:07;;;;;;;3.70;3.30;;;;;;;31.79;30.52;98168.29;110211;1242;70163;-65
2023/09/07 09:06:36;;;;;;;3.60;3.00;;;;;;;31.69;29.29;98166.32;110254;1242;59700;-66
2023/09/07 09:09:05;;;;;;;4.00;3.10;;;;;;;32.02;29.50;98159.66;110184;1241;59728;-66
2023/09/07 09:11:34;;;;;;;4.90;3.30;;;;;;;32.03;29.55;98155.88;110529;1240;72424;-64
2023/09/07 09:14:06;;;;;;;3.40;2.80;;;;;;;32.45;28.94;98152.22;110207;1242;68487;-64
2023/09/07 09:16:35;;;;;;;3.10;2.60;;;;;;;32.14;27.68;98147.54;110294;1242;68708;-64
2023/09/07 09:19:05;;;;;;;3.50;3.20;;;;;;;32.41;28.25;98144.90;110172;1242;59679;-64
2023/09/07 09:21:34;;;;;;;3.30;3.00;;;;;;;32.10;28.03;98141.85;110197;1242;59665;-64
2023/09/07 09:24:09;;;;;;;4.30;3.30;;;;;;;32.15;27.80;98141.06;110209;1242;71931;-64
2023/09/07 09:26:38;;;;;;;3.40;3.10;;;;;;;31.61;27.85;98142.70;110292;1241;68483;-64
2023/09/07 09:29:09;;;;;;;3.20;2.90;;;;;;;31.90;28.79;98140.89;110206;1241;69881;-64
2023/09/07 09:31:39;;;;;;;4.10;2.80;;;;;;;32.58;28.21;98141.10;110159;1242;59695;-64
2023/09/07 09:34:08;;;;;;;3.60;2.90;;;;;;;33.15;26.95;98137.72;110392;1241;59692;-64
2023/09/07 09:36:37;;;;;;;3.20;2.50;;;;;;;33.24;26.69;98132.34;110355;1240;71837;-64
2023/09/07 09:39:06;;;;;;;3.60;3.00;;;;;;;32.15;26.24;98126.98;110370;1239;69277;-66
2023/09/07 09:41:36;;;;;;;4.10;3.10;;;;;;;32.86;27.18;98128.31;110333;1241;69865;-64
2023/09/07 09:44:07;;;;;;;3.50;3.20;;;;;;;33.26;26.80;98123.66;110330;1240;59689;-65
2023/09/07 09:46:39;;;;;;;4.60;3.40;;;;;;;33.56;25.72;98125.02;110327;1242;59639;-65
2023/09/07 09:49:11;;;;;;;3.60;2.90;;;;;;;33.41;25.59;98122.13;110384;1241;71784;-65
2023/09/07 09:51:42;;;;;;;4.00;3.10;;;;;;;33.39;25.51;98117.54;110346;1241;69084;-65
2023/09/07 09:54:13;;;;;;;3.30;2.90;;;;;;;33.38;25.97;98118.66;110355;1241;69888;-65
2023/09/07 09:56:42;;;;;;;3.40;2.90;;;;;;;33.07;25.93;98116.20;110166;1241;59701;-64
2023/09/07 09:59:13;;;;;;;3.60;2.80;;;;;;;32.85;25.54;98114.37;110200;1242;59689;-65
2023/09/07 10:01:50;;;;;;;3.10;2.60;;;;;;;33.05;26.05;98113.35;110235;1241;71493;-65
2023/09/07 10:04:22;;;;;;;4.20;3.00;;;;;;;32.73;25.34;98109.94;110355;1240;68799;-66
2023/09/07 10:07:04;;;;;;;3.10;2.50;;;;;;;33.00;25.42;98108.77;110399;1241;68336;-64
2023/09/07 10:09:36;;;;;;;3.20;2.50;;;;;;;33.61;24.49;98109.06;110178;1241;59712;-65
2023/09/07 10:12:12;;;;;;;3.30;2.60;;;;;;;34.26;24.39;98105.54;110402;1241;59636;-65
2023/09/07 10:14:50;;;;;;;3.30;2.80;;;;;;;33.76;24.10;98103.21;110100;1243;71383;-65
2023/09/07 10:17:23;;;;;;;3.60;2.60;;;;;;;34.60;24.68;98101.31;110287;1241;69108;-65
2023/09/07 10:20:08;;;;;;;3.50;2.70;;;;;;;34.98;23.49;98098.91;110253;1242;68700;-65
2023/09/07 10:22:36;;;;;;;4.30;3.30;;;;;;;34.20;23.25;98093.52;110295;1242;59750;-66
2023/09/07 10:25:11;;;;;;;3.70;3.00;;;;;;;33.93;23.34;98092.76;110403;1241;59688;-65
2023/09/07 10:27:41;;;;;;;3.30;2.50;;;;;;;32.58;25.01;98089.88;110326;1241;70728;-66
2023/09/07 10:30:12;;;;;;;4.70;3.30;;;;;;;32.68;24.43;98085.70;110399;1241;69798;-65
2023/09/07 10:32:41;;;;;;;4.50;2.90;;;;;;;33.00;23.85;98086.70;110233;1241;69885;-65
2023/09/07 10:35:16;;;;;;;2.90;2.50;;;;;;;32.89;24.42;98084.80;110105;1244;59763;-65
2023/09/07 10:37:46;;;;;;;3.20;2.50;;;;;;;33.93;24.83;98080.41;110411;1240;59702;-65
2023/09/07 10:40:22;;;;;;;8.10;3.60;;;;;;;34.74;24.23;98082.40;110365;1241;71832;-66
2023/09/07 10:43:02;;;;;;;4.00;3.10;;;;;;;34.91;23.36;98077.95;110443;1248;69244;-65
2023/09/07 10:45:31;;;;;;;4.30;3.20;;;;;;;34.73;23.10;98075.85;110246;1241;69875;-65
2023/09/07 10:48:03;;;;;;;3.50;3.00;;;;;;;34.67;23.30;98075.50;110219;1241;59690;-66
2023/09/07 10:50:43;;;;;;;3.20;2.80;;;;;;;34.88;22.62;98070.27;110301;1241;59731;-66
2023/09/07 10:53:14;;;;;;;2.80;2.30;;;;;;;35.24;22.53;98072.12;110277;1242;71988;-65
2023/09/07 10:55:43;;;;;;;3.30;2.80;;;;;;;35.14;22.69;98068.64;110477;1241;69054;-66
2023/09/07 10:58:12;;;;;;;4.60;2.70;;;;;;;34.97;22.62;98068.39;110196;1240;69855;-65
2023/09/07 11:00:49;;;;;;;2.90;2.50;;;;;;;34.62;23.02;98065.13;110189;1241;59684;-64
2023/09/07 11:03:18;;;;;;;4.70;3.70;;;;;;;35.07;22.89;98065.05;110201;1240;59698;-65
2023/09/07 11:05:49;;;;;;;3.40;2.40;;;;;;;35.19;22.47;98062.23;110211;1242;72020;-64
2023/09/07 11:08:18;;;;;;;3.30;2.80;;;;;;;35.38;22.59;98057.98;110229;1241;69204;-65
2023/09/07 11:10:49;;;;;;;3.10;2.50;;;;;;;35.98;22.22;98049.98;110180;1242;68573;-65
2023/09/07 11:13:18;;;;;;;3.60;2.70;;;;;;;35.74;21.75;98054.06;110235;1242;59744;-65
2023/09/07 11:15:47;;;;;;;4.10;2.70;;;;;;;35.92;22.13;98051.45;110229;1242;59675;-65
2023/09/07 11:18:23;;;;;;;3.50;2.40;;;;;;;36.09;21.80;98051.60;110256;1242;71391;-64
2023/09/07 11:20:53;;;;;;;3.10;2.70;;;;;;;36.03;22.57;98046.98;110186;1244;69646;-65
2023/09/07 11:23:24;;;;;;;4.00;3.10;;;;;;;36.43;21.34;98046.85;110143;1241;69166;-65
2023/09/07 11:25:53;;;;;;;3.30;3.00;;;;;;;35.45;22.27;98046.36;110207;1242;59690;-65
2023/09/07 11:28:24;;;;;;;4.10;2.90;;;;;;;34.71;22.36;98047.98;110228;1242;59724;-65
2023/09/07 11:30:55;;;;;;;3.50;3.00;;;;;;;35.11;22.56;98047.04;110208;1242;71316;-66
2023/09/07 11:33:24;;;;;;;5.00;2.80;;;;;;;34.38;22.65;98042.32;110203;1242;69800;-65
2023/09/07 11:35:56;;;;;;;3.40;2.60;;;;;;;34.45;23.27;98043.55;110214;1242;69721;-65
2023/09/07 11:38:30;;;;;;;3.20;2.60;;;;;;;34.44;24.83;98038.10;110188;1241;59692;-66
2023/09/07 11:40:59;;;;;;;3.30;2.70;;;;;;;34.93;24.61;98037.40;110195;1242;59662;-66
2023/09/07 11:43:28;;;;;;;3.90;2.50;;;;;;;35.37;24.13;98034.06;110214;1241;71918;-66